sensor_id;sensor_type;location;lat;lon;timestamp;pressure;altitude;pressure_sealevel;temperature
67509;BMP280;54354;44.724;11.284;2024-03-08T00:00:11;101535.22;;;14.37
67509;BMP280;54354;44.724;11.284;2024-03-08T00:02:40;101532.31;;;15.04
67509;BMP280;54354;44.724;11.284;2024-03-08T00:05:07;101541.56;;;14.63
67509;BMP280;54354;44.724;11.284;2024-03-08T00:07:35;101538.63;;;14.38
67509;BMP280;54354;44.724;11.284;2024-03-08T00:10:02;101550.28;;;14.27
67509;BMP280;54354;44.724;11.284;2024-03-08T00:12:28;101559.03;;;14.24
67509;BMP280;54354;44.724;11.284;2024-03-08T00:14:54;101552.28;;;14.20
67509;BMP280;54354;44.724;11.284;2024-03-08T00:17:20;101546.31;;;14.16
67509;BMP280;54354;44.724;11.284;2024-03-08T00:19:48;101539.84;;;14.13
67509;BMP280;54354;44.724;11.284;2024-03-08T00:22:15;101549.72;;;14.16
67509;BMP280;54354;44.724;11.284;2024-03-08T00:24:41;101557.91;;;14.25
67509;BMP280;54354;44.724;11.284;2024-03-08T00:27:07;101550.94;;;14.31
67509;BMP280;54354;44.724;11.284;2024-03-08T00:29:34;101550.41;;;14.40
67509;BMP280;54354;44.724;11.284;2024-03-08T00:31:59;101544.94;;;14.47
67509;BMP280;54354;44.724;11.284;2024-03-08T00:34:25;101555.03;;;14.56
67509;BMP280;54354;44.724;11.284;2024-03-08T00:36:50;101549.63;;;14.59
67509;BMP280;54354;44.724;11.284;2024-03-08T00:39:18;101540.94;;;14.55
67509;BMP280;54354;44.724;11.284;2024-03-08T00:41:45;101542.81;;;14.58
67509;BMP280;54354;44.724;11.284;2024-03-08T00:44:10;101545.88;;;14.57
67509;BMP280;54354;44.724;11.284;2024-03-08T00:46:36;101551.78;;;14.48
67509;BMP280;54354;44.724;11.284;2024-03-08T00:49:02;101549.16;;;14.45
67509;BMP280;54354;44.724;11.284;2024-03-08T00:51:27;101534.41;;;14.40
67509;BMP280;54354;44.724;11.284;2024-03-08T00:53:53;101541.91;;;14.45
67509;BMP280;54354;44.724;11.284;2024-03-08T00:56:18;101536.25;;;14.43
67509;BMP280;54354;44.724;11.284;2024-03-08T00:58:44;101542.69;;;14.46
67509;BMP280;54354;44.724;11.284;2024-03-08T01:01:09;101538.09;;;14.46
67509;BMP280;54354;44.724;11.284;2024-03-08T01:03:36;101527.56;;;14.39
67509;BMP280;54354;44.724;11.284;2024-03-08T01:06:01;101537.13;;;14.37
67509;BMP280;54354;44.724;11.284;2024-03-08T01:08:27;101544.81;;;14.35
67509;BMP280;54354;44.724;11.284;2024-03-08T01:10:53;101543.31;;;14.34
67509;BMP280;54354;44.724;11.284;2024-03-08T01:13:19;101538.78;;;14.30
67509;BMP280;54354;44.724;11.284;2024-03-08T01:15:45;101530.03;;;14.30
67509;BMP280;54354;44.724;11.284;2024-03-08T01:18:11;101529.22;;;14.33
67509;BMP280;54354;44.724;11.284;2024-03-08T01:20:37;101532.56;;;14.37
67509;BMP280;54354;44.724;11.284;2024-03-08T01:23:02;101531.34;;;14.42
67509;BMP280;54354;44.724;11.284;2024-03-08T01:25:31;101526.44;;;14.40
67509;BMP280;54354;44.724;11.284;2024-03-08T01:27:57;101536.34;;;14.40
67509;BMP280;54354;44.724;11.284;2024-03-08T01:30:22;101541.66;;;14.40
67509;BMP280;54354;44.724;11.284;2024-03-08T01:32:48;101538.63;;;14.38
67509;BMP280;54354;44.724;11.284;2024-03-08T01:35:14;101535.56;;;14.39
67509;BMP280;54354;44.724;11.284;2024-03-08T01:37:39;101539.75;;;14.40
67509;BMP280;54354;44.724;11.284;2024-03-08T01:40:05;101532.50;;;14.41
67509;BMP280;54354;44.724;11.284;2024-03-08T01:42:34;101529.47;;;14.39
67509;BMP280;54354;44.724;11.284;2024-03-08T01:45:05;101522.38;;;14.32
67509;BMP280;54354;44.724;11.284;2024-03-08T01:47:32;101530.31;;;14.36
67509;BMP280;54354;44.724;11.284;2024-03-08T01:49:59;101517.78;;;14.32
67509;BMP280;54354;44.724;11.284;2024-03-08T01:52:28;101524.97;;;14.36
67509;BMP280;54354;44.724;11.284;2024-03-08T01:54:54;101522.00;;;14.34
67509;BMP280;54354;44.724;11.284;2024-03-08T01:57:20;101524.72;;;14.30
67509;BMP280;54354;44.724;11.284;2024-03-08T01:59:46;101518.31;;;14.27
67509;BMP280;54354;44.724;11.284;2024-03-08T02:02:14;101504.28;;;14.23
67509;BMP280;54354;44.724;11.284;2024-03-08T02:04:41;101507.97;;;14.29
67509;BMP280;54354;44.724;11.284;2024-03-08T02:07:06;101503.53;;;14.23
67509;BMP280;54354;44.724;11.284;2024-03-08T02:09:32;101497.19;;;14.17
67509;BMP280;54354;44.724;11.284;2024-03-08T02:11:57;101493.16;;;14.09
67509;BMP280;54354;44.724;11.284;2024-03-08T02:14:28;101488.28;;;14.03
67509;BMP280;54354;44.724;11.284;2024-03-08T02:16:54;101491.75;;;14.00
67509;BMP280;54354;44.724;11.284;2024-03-08T02:19:19;101487.69;;;13.96
67509;BMP280;54354;44.724;11.284;2024-03-08T02:21:45;101477.78;;;13.96
67509;BMP280;54354;44.724;11.284;2024-03-08T02:24:12;101484.50;;;14.04
67509;BMP280;54354;44.724;11.284;2024-03-08T02:26:38;101492.66;;;14.14
67509;BMP280;54354;44.724;11.284;2024-03-08T02:29:03;101486.88;;;14.19
67509;BMP280;54354;44.724;11.284;2024-03-08T02:31:30;101487.13;;;14.24
67509;BMP280;54354;44.724;11.284;2024-03-08T02:33:55;101481.75;;;14.28
67509;BMP280;54354;44.724;11.284;2024-03-08T02:36:21;101495.72;;;14.32
67509;BMP280;54354;44.724;11.284;2024-03-08T02:38:46;101488.50;;;14.32
67509;BMP280;54354;44.724;11.284;2024-03-08T02:41:12;101499.22;;;14.29
67509;BMP280;54354;44.724;11.284;2024-03-08T02:43:37;101495.81;;;14.28
67509;BMP280;54354;44.724;11.284;2024-03-08T02:46:03;101490.56;;;14.25
67509;BMP280;54354;44.724;11.284;2024-03-08T02:48:30;101497.56;;;14.15
67509;BMP280;54354;44.724;11.284;2024-03-08T02:50:56;101495.06;;;14.08
67509;BMP280;54354;44.724;11.284;2024-03-08T02:53:21;101490.56;;;14.05
67509;BMP280;54354;44.724;11.284;2024-03-08T02:55:47;101497.06;;;14.04
67509;BMP280;54354;44.724;11.284;2024-03-08T02:58:12;101490.94;;;14.03
67509;BMP280;54354;44.724;11.284;2024-03-08T03:00:39;101487.63;;;13.99
67509;BMP280;54354;44.724;11.284;2024-03-08T03:03:06;101484.25;;;13.95
67509;BMP280;54354;44.724;11.284;2024-03-08T03:05:31;101495.25;;;13.97
67509;BMP280;54354;44.724;11.284;2024-03-08T03:07:57;101489.91;;;13.97
67509;BMP280;54354;44.724;11.284;2024-03-08T03:10:24;101491.09;;;13.96
67509;BMP280;54354;44.724;11.284;2024-03-08T03:12:49;101492.19;;;13.99
67509;BMP280;54354;44.724;11.284;2024-03-08T03:15:15;101493.66;;;14.00
67509;BMP280;54354;44.724;11.284;2024-03-08T03:17:50;101484.25;;;13.95
67509;BMP280;54354;44.724;11.284;2024-03-08T03:20:17;101480.34;;;14.00
67509;BMP280;54354;44.724;11.284;2024-03-08T03:22:49;101486.19;;;13.95
67509;BMP280;54354;44.724;11.284;2024-03-08T03:25:20;101485.19;;;13.85
67509;BMP280;54354;44.724;11.284;2024-03-08T03:27:53;101483.28;;;13.86
67509;BMP280;54354;44.724;11.284;2024-03-08T03:30:22;101487.56;;;13.79
67509;BMP280;54354;44.724;11.284;2024-03-08T03:32:49;101483.84;;;13.77
67509;BMP280;54354;44.724;11.284;2024-03-08T03:35:17;101474.31;;;13.76
67509;BMP280;54354;44.724;11.284;2024-03-08T03:37:43;101483.84;;;13.77
67509;BMP280;54354;44.724;11.284;2024-03-08T03:40:11;101481.19;;;13.77
67509;BMP280;54354;44.724;11.284;2024-03-08T03:42:38;101483.88;;;13.73
67509;BMP280;54354;44.724;11.284;2024-03-08T03:45:05;101476.69;;;13.70
67509;BMP280;54354;44.724;11.284;2024-03-08T03:47:31;101490.66;;;13.78
67509;BMP280;54354;44.724;11.284;2024-03-08T03:49:56;101497.41;;;13.83
67509;BMP280;54354;44.724;11.284;2024-03-08T03:52:26;101487.53;;;14.43
67509;BMP280;54354;44.724;11.284;2024-03-08T03:54:52;101505.25;;;14.13
67509;BMP280;54354;44.724;11.284;2024-03-08T03:57:18;101497.91;;;13.97
67509;BMP280;54354;44.724;11.284;2024-03-08T03:59:44;101508.63;;;13.94
67509;BMP280;54354;44.724;11.284;2024-03-08T04:02:09;101512.09;;;13.91
67509;BMP280;54354;44.724;11.284;2024-03-08T04:04:34;101512.16;;;13.87
67509;BMP280;54354;44.724;11.284;2024-03-08T04:07:00;101515.22;;;13.86
67509;BMP280;54354;44.724;11.284;2024-03-08T04:09:27;101516.81;;;13.83
67509;BMP280;54354;44.724;11.284;2024-03-08T04:11:53;101523.28;;;13.82
67509;BMP280;54354;44.724;11.284;2024-03-08T04:14:20;101529.34;;;13.83
67509;BMP280;54354;44.724;11.284;2024-03-08T04:16:46;101534.97;;;13.88
67509;BMP280;54354;44.724;11.284;2024-03-08T04:19:13;101522.41;;;13.89
67509;BMP280;54354;44.724;11.284;2024-03-08T04:21:39;101539.16;;;13.89
67509;BMP280;54354;44.724;11.284;2024-03-08T04:24:04;101530.13;;;13.83
67509;BMP280;54354;44.724;11.284;2024-03-08T04:26:31;101531.06;;;13.73
67509;BMP280;54354;44.724;11.284;2024-03-08T04:28:56;101534.97;;;13.65
67509;BMP280;54354;44.724;11.284;2024-03-08T04:31:22;101535.09;;;13.58
67509;BMP280;54354;44.724;11.284;2024-03-08T04:33:47;101545.84;;;13.50
67509;BMP280;54354;44.724;11.284;2024-03-08T04:36:13;101537.66;;;13.41
67509;BMP280;54354;44.724;11.284;2024-03-08T04:38:39;101532.41;;;13.34
67509;BMP280;54354;44.724;11.284;2024-03-08T04:41:06;101532.44;;;13.31
67509;BMP280;54354;44.724;11.284;2024-03-08T04:43:33;101534.38;;;13.30
67509;BMP280;54354;44.724;11.284;2024-03-08T04:45:58;101529.44;;;13.29
67509;BMP280;54354;44.724;11.284;2024-03-08T04:48:23;101531.38;;;13.28
67509;BMP280;54354;44.724;11.284;2024-03-08T04:50:51;101530.25;;;13.25
67509;BMP280;54354;44.724;11.284;2024-03-08T04:53:18;101534.44;;;13.27
67509;BMP280;54354;44.724;11.284;2024-03-08T04:55:43;101534.78;;;13.29
67509;BMP280;54354;44.724;11.284;2024-03-08T04:58:09;101533.63;;;13.30
67509;BMP280;54354;44.724;11.284;2024-03-08T05:00:35;101533.94;;;13.32
67509;BMP280;54354;44.724;11.284;2024-03-08T05:03:00;101527.53;;;13.29
67509;BMP280;54354;44.724;11.284;2024-03-08T05:05:26;101532.06;;;13.32
67509;BMP280;54354;44.724;11.284;2024-03-08T05:07:53;101527.50;;;13.33
67509;BMP280;54354;44.724;11.284;2024-03-08T05:10:19;101522.84;;;13.37
67509;BMP280;54354;44.724;11.284;2024-03-08T05:12:44;101514.09;;;13.40
67509;BMP280;54354;44.724;11.284;2024-03-08T05:15:10;101518.28;;;13.37
67509;BMP280;54354;44.724;11.284;2024-03-08T05:17:36;101516.78;;;13.36
67509;BMP280;54354;44.724;11.284;2024-03-08T05:20:02;101521.78;;;13.34
67509;BMP280;54354;44.724;11.284;2024-03-08T05:22:27;101518.34;;;13.34
67509;BMP280;54354;44.724;11.284;2024-03-08T05:24:53;101527.78;;;13.38
67509;BMP280;54354;44.724;11.284;2024-03-08T05:27:18;101525.09;;;13.42
67509;BMP280;54354;44.724;11.284;2024-03-08T05:29:44;101532.63;;;13.47
67509;BMP280;54354;44.724;11.284;2024-03-08T05:32:10;101535.22;;;13.50
67509;BMP280;54354;44.724;11.284;2024-03-08T05:34:35;101540.81;;;13.56
67509;BMP280;54354;44.724;11.284;2024-03-08T05:37:01;101533.94;;;13.59
67509;BMP280;54354;44.724;11.284;2024-03-08T05:39:27;101543.44;;;13.60
67509;BMP280;54354;44.724;11.284;2024-03-08T05:41:52;101544.53;;;13.62
67509;BMP280;54354;44.724;11.284;2024-03-08T05:44:18;101537.69;;;13.61
67509;BMP280;54354;44.724;11.284;2024-03-08T05:46:43;101541.91;;;13.59
67509;BMP280;54354;44.724;11.284;2024-03-08T05:49:09;101539.25;;;13.59
67509;BMP280;54354;44.724;11.284;2024-03-08T05:51:37;101532.88;;;13.52
67509;BMP280;54354;44.724;11.284;2024-03-08T05:54:03;101531.34;;;13.55
67509;BMP280;54354;44.724;11.284;2024-03-08T05:56:33;101527.97;;;13.51
67509;BMP280;54354;44.724;11.284;2024-03-08T05:58:58;101538.50;;;13.58
67509;BMP280;54354;44.724;11.284;2024-03-08T06:01:25;101541.53;;;13.60
67509;BMP280;54354;44.724;11.284;2024-03-08T06:03:52;101542.28;;;13.61
67509;BMP280;54354;44.724;11.284;2024-03-08T06:06:21;101548.19;;;13.72
67509;BMP280;54354;44.724;11.284;2024-03-08T06:08:47;101552.75;;;13.71
67509;BMP280;54354;44.724;11.284;2024-03-08T06:11:14;101546.69;;;13.71
67509;BMP280;54354;44.724;11.284;2024-03-08T06:13:40;101555.41;;;13.71
67509;BMP280;54354;44.724;11.284;2024-03-08T06:16:05;101560.31;;;13.73
67509;BMP280;54354;44.724;11.284;2024-03-08T06:18:36;101555.50;;;13.68
67509;BMP280;54354;44.724;11.284;2024-03-08T06:21:05;101560.31;;;13.73
67509;BMP280;54354;44.724;11.284;2024-03-08T06:23:35;101557.66;;;13.73
67509;BMP280;54354;44.724;11.284;2024-03-08T06:26:09;101571.56;;;13.84
67509;BMP280;54354;44.724;11.284;2024-03-08T06:28:34;101571.84;;;13.90
67509;BMP280;54354;44.724;11.284;2024-03-08T06:31:01;101564.97;;;13.92
67509;BMP280;54354;44.724;11.284;2024-03-08T06:33:27;101586.56;;;13.98
67509;BMP280;54354;44.724;11.284;2024-03-08T06:35:53;101580.41;;;14.01
67509;BMP280;54354;44.724;11.284;2024-03-08T06:38:23;101582.19;;;14.08
67509;BMP280;54354;44.724;11.284;2024-03-08T06:40:49;101582.59;;;14.06
67509;BMP280;54354;44.724;11.284;2024-03-08T06:43:14;101581.50;;;14.03
67509;BMP280;54354;44.724;11.284;2024-03-08T06:45:47;101576.97;;;14.00
67509;BMP280;54354;44.724;11.284;2024-03-08T06:48:16;101581.31;;;14.14
67509;BMP280;54354;44.724;11.284;2024-03-08T06:50:43;101582.34;;;14.20
67509;BMP280;54354;44.724;11.284;2024-03-08T06:53:09;101589.13;;;14.25
67509;BMP280;54354;44.724;11.284;2024-03-08T06:55:35;101590.22;;;14.27
67509;BMP280;54354;44.724;11.284;2024-03-08T06:58:01;101593.97;;;14.30
67509;BMP280;54354;44.724;11.284;2024-03-08T07:00:27;101599.66;;;14.32
67509;BMP280;54354;44.724;11.284;2024-03-08T07:02:54;101592.34;;;14.36
67509;BMP280;54354;44.724;11.284;2024-03-08T07:05:20;101594.47;;;14.45
67509;BMP280;54354;44.724;11.284;2024-03-08T07:07:45;101590.94;;;14.51
67509;BMP280;54354;44.724;11.284;2024-03-08T07:10:14;101594.25;;;14.55
67509;BMP280;54354;44.724;11.284;2024-03-08T07:12:41;101593.09;;;14.56
67509;BMP280;54354;44.724;11.284;2024-03-08T07:15:07;101602.13;;;14.63
67509;BMP280;54354;44.724;11.284;2024-03-08T07:17:33;101603.22;;;14.65
67509;BMP280;54354;44.724;11.284;2024-03-08T07:20:00;101594.75;;;14.70
67509;BMP280;54354;44.724;11.284;2024-03-08T07:22:31;101609.00;;;14.80
67509;BMP280;54354;44.724;11.284;2024-03-08T07:24:56;101608.88;;;14.87
67509;BMP280;54354;44.724;11.284;2024-03-08T07:27:40;101597.72;;;14.92
67509;BMP280;54354;44.724;11.284;2024-03-08T07:30:06;101600.75;;;14.94
67509;BMP280;54354;44.724;11.284;2024-03-08T07:32:32;101613.91;;;15.01
67509;BMP280;54354;44.724;11.284;2024-03-08T07:34:58;101605.81;;;15.05
67509;BMP280;54354;44.724;11.284;2024-03-08T07:37:24;101595.34;;;15.14
67509;BMP280;54354;44.724;11.284;2024-03-08T07:39:49;101598.63;;;15.22
67509;BMP280;54354;44.724;11.284;2024-03-08T07:42:15;101599.63;;;15.28
67509;BMP280;54354;44.724;11.284;2024-03-08T07:44:42;101598.63;;;15.38
67509;BMP280;54354;44.724;11.284;2024-03-08T07:47:08;101594.97;;;15.48
67509;BMP280;54354;44.724;11.284;2024-03-08T07:49:35;101583.28;;;15.58
67509;BMP280;54354;44.724;11.284;2024-03-08T07:52:03;101591.63;;;15.77
67509;BMP280;54354;44.724;11.284;2024-03-08T07:54:30;101589.25;;;15.95
67509;BMP280;54354;44.724;11.284;2024-03-08T07:56:55;101594.91;;;16.13
67509;BMP280;54354;44.724;11.284;2024-03-08T07:59:21;101585.31;;;16.29
67509;BMP280;54354;44.724;11.284;2024-03-08T08:01:46;101581.72;;;16.48
67509;BMP280;54354;44.724;11.284;2024-03-08T08:04:12;101575.84;;;16.53
67509;BMP280;54354;44.724;11.284;2024-03-08T08:06:39;101576.94;;;16.56
67509;BMP280;54354;44.724;11.284;2024-03-08T08:09:09;101558.09;;;16.59
67509;BMP280;54354;44.724;11.284;2024-03-08T08:11:41;101565.47;;;16.68
67509;BMP280;54354;44.724;11.284;2024-03-08T08:14:09;101553.41;;;16.63
67509;BMP280;54354;44.724;11.284;2024-03-08T08:16:38;101557.78;;;16.57
67509;BMP280;54354;44.724;11.284;2024-03-08T08:19:06;101563.88;;;16.58
67509;BMP280;54354;44.724;11.284;2024-03-08T08:21:35;101555.91;;;16.41
67509;BMP280;54354;44.724;11.284;2024-03-08T08:24:04;101560.75;;;16.34
67509;BMP280;54354;44.724;11.284;2024-03-08T08:26:29;101562.69;;;16.33
67509;BMP280;54354;44.724;11.284;2024-03-08T08:28:55;101563.19;;;16.41
67509;BMP280;54354;44.724;11.284;2024-03-08T08:31:20;101558.50;;;16.45
67509;BMP280;54354;44.724;11.284;2024-03-08T08:33:46;101555.19;;;16.54
67509;BMP280;54354;44.724;11.284;2024-03-08T08:36:13;101571.38;;;16.88
67509;BMP280;54354;44.724;11.284;2024-03-08T08:38:39;101567.50;;;17.15
67509;BMP280;54354;44.724;11.284;2024-03-08T08:41:04;101569.16;;;17.34
67509;BMP280;54354;44.724;11.284;2024-03-08T08:43:31;101577.00;;;17.41
67509;BMP280;54354;44.724;11.284;2024-03-08T08:45:58;101572.41;;;17.42
67509;BMP280;54354;44.724;11.284;2024-03-08T08:48:24;101578.50;;;17.42
67509;BMP280;54354;44.724;11.284;2024-03-08T08:50:50;101568.84;;;17.45
67509;BMP280;54354;44.724;11.284;2024-03-08T08:53:17;101573.16;;;17.64
67509;BMP280;54354;44.724;11.284;2024-03-08T08:55:43;101577.38;;;17.87
67509;BMP280;54354;44.724;11.284;2024-03-08T08:58:11;101580.06;;;18.09
67509;BMP280;54354;44.724;11.284;2024-03-08T09:00:36;101571.28;;;18.30
67509;BMP280;54354;44.724;11.284;2024-03-08T09:03:02;101570.41;;;18.42
67509;BMP280;54354;44.724;11.284;2024-03-08T09:05:28;101580.56;;;18.48
67509;BMP280;54354;44.724;11.284;2024-03-08T09:07:54;101578.16;;;18.40
67509;BMP280;54354;44.724;11.284;2024-03-08T09:10:20;101571.13;;;18.34
67509;BMP280;54354;44.724;11.284;2024-03-08T09:12:46;101565.00;;;18.33
67509;BMP280;54354;44.724;11.284;2024-03-08T09:15:12;101576.47;;;18.34
67509;BMP280;54354;44.724;11.284;2024-03-08T09:17:38;101573.00;;;18.24
67509;BMP280;54354;44.724;11.284;2024-03-08T09:20:09;101567.41;;;18.09
67509;BMP280;54354;44.724;11.284;2024-03-08T09:22:35;101574.53;;;18.03
67509;BMP280;54354;44.724;11.284;2024-03-08T09:25:01;101573.66;;;18.06
67509;BMP280;54354;44.724;11.284;2024-03-08T09:27:30;101580.47;;;18.07
67509;BMP280;54354;44.724;11.284;2024-03-08T09:29:55;101578.09;;;18.00
67509;BMP280;54354;44.724;11.284;2024-03-08T09:32:21;101574.75;;;17.96
67509;BMP280;54354;44.724;11.284;2024-03-08T09:34:48;101579.97;;;18.00
67509;BMP280;54354;44.724;11.284;2024-03-08T09:37:13;101582.56;;;18.03
67509;BMP280;54354;44.724;11.284;2024-03-08T09:39:39;101583.91;;;18.08
67509;BMP280;54354;44.724;11.284;2024-03-08T09:42:04;101587.66;;;18.10
67509;BMP280;54354;44.724;11.284;2024-03-08T09:44:31;101583.78;;;18.11
67509;BMP280;54354;44.724;11.284;2024-03-08T09:46:58;101574.41;;;18.07
67509;BMP280;54354;44.724;11.284;2024-03-08T09:49:23;101578.25;;;18.06
67509;BMP280;54354;44.724;11.284;2024-03-08T09:51:50;101579.44;;;18.05
67509;BMP280;54354;44.724;11.284;2024-03-08T09:54:16;101575.88;;;18.08
67509;BMP280;54354;44.724;11.284;2024-03-08T09:56:42;101576.81;;;18.14
67509;BMP280;54354;44.724;11.284;2024-03-08T09:59:09;101582.66;;;18.22
67509;BMP280;54354;44.724;11.284;2024-03-08T10:01:51;101587.16;;;18.25
67509;BMP280;54354;44.724;11.284;2024-03-08T10:04:17;101578.94;;;18.19
67509;BMP280;54354;44.724;11.284;2024-03-08T10:06:43;101581.56;;;18.10
67509;BMP280;54354;44.724;11.284;2024-03-08T10:09:12;101576.75;;;18.05
67509;BMP280;54354;44.724;11.284;2024-03-08T10:11:38;101587.63;;;18.01
67509;BMP280;54354;44.724;11.284;2024-03-08T10:14:04;101587.16;;;18.03
67509;BMP280;54354;44.724;11.284;2024-03-08T10:16:31;101594.06;;;18.13
67509;BMP280;54354;44.724;11.284;2024-03-08T10:18:57;101598.75;;;18.22
67509;BMP280;54354;44.724;11.284;2024-03-08T10:21:22;101592.09;;;18.26
67509;BMP280;54354;44.724;11.284;2024-03-08T10:23:48;101591.09;;;18.33
67509;BMP280;54354;44.724;11.284;2024-03-08T10:26:15;101588.09;;;18.31
67509;BMP280;54354;44.724;11.284;2024-03-08T10:28:42;101581.81;;;18.25
67509;BMP280;54354;44.724;11.284;2024-03-08T10:31:08;101582.97;;;18.24
67509;BMP280;54354;44.724;11.284;2024-03-08T10:33:35;101586.09;;;18.22
67509;BMP280;54354;44.724;11.284;2024-03-08T10:36:00;101589.97;;;18.21
67509;BMP280;54354;44.724;11.284;2024-03-08T10:38:26;101595.44;;;18.17
67509;BMP280;54354;44.724;11.284;2024-03-08T10:40:58;101580.44;;;18.20
67509;BMP280;54354;44.724;11.284;2024-03-08T10:43:24;101584.91;;;18.23
67509;BMP280;54354;44.724;11.284;2024-03-08T10:46:01;101578.03;;;18.22
67509;BMP280;54354;44.724;11.284;2024-03-08T10:48:30;101584.09;;;18.35
67509;BMP280;54354;44.724;11.284;2024-03-08T10:51:04;101578.16;;;18.40
67509;BMP280;54354;44.724;11.284;2024-03-08T10:53:30;101578.47;;;18.42
67509;BMP280;54354;44.724;11.284;2024-03-08T10:55:57;101582.38;;;18.51
67509;BMP280;54354;44.724;11.284;2024-03-08T10:58:26;101574.81;;;18.58
67509;BMP280;54354;44.724;11.284;2024-03-08T11:00:55;101565.34;;;18.76
67509;BMP280;54354;44.724;11.284;2024-03-08T11:06:09;101568.38;;;18.96
67509;BMP280;54354;44.724;11.284;2024-03-08T11:08:40;101571.50;;;18.94
67509;BMP280;54354;44.724;11.284;2024-03-08T11:11:05;101572.69;;;18.93
67509;BMP280;54354;44.724;11.284;2024-03-08T11:13:48;101565.09;;;19.01
67509;BMP280;54354;44.724;11.284;2024-03-08T11:16:43;101556.00;;;18.98
67509;BMP280;54354;44.724;11.284;2024-03-08T11:21:36;101544.25;;;18.65
67509;BMP280;54354;44.724;11.284;2024-03-08T11:24:10;101546.16;;;18.55
67509;BMP280;54354;44.724;11.284;2024-03-08T11:26:40;101533.78;;;18.49
67509;BMP280;54354;44.724;11.284;2024-03-08T11:32:10;101532.03;;;18.55
67509;BMP280;54354;44.724;11.284;2024-03-08T11:34:37;101515.03;;;18.58
67509;BMP280;54354;44.724;11.284;2024-03-08T11:37:15;101522.66;;;18.59
67509;BMP280;54354;44.724;11.284;2024-03-08T11:39:47;101514.91;;;18.70
67509;BMP280;54354;44.724;11.284;2024-03-08T11:42:18;101505.88;;;18.86
67509;BMP280;54354;44.724;11.284;2024-03-08T11:44:47;101505.28;;;18.91
67509;BMP280;54354;44.724;11.284;2024-03-08T11:47:13;101518.25;;;18.93
67509;BMP280;54354;44.724;11.284;2024-03-08T11:49:40;101514.94;;;18.80
67509;BMP280;54354;44.724;11.284;2024-03-08T11:52:13;101500.34;;;18.81
67509;BMP280;54354;44.724;11.284;2024-03-08T11:54:40;101511.84;;;18.81
67509;BMP280;54354;44.724;11.284;2024-03-08T11:57:06;101497.66;;;18.71
67509;BMP280;54354;44.724;11.284;2024-03-08T11:59:31;101502.25;;;18.71
67509;BMP280;54354;44.724;11.284;2024-03-08T12:02:05;101499.16;;;18.73
67509;BMP280;54354;44.724;11.284;2024-03-08T12:04:31;101502.00;;;18.87
67509;BMP280;54354;44.724;11.284;2024-03-08T12:07:00;101502.44;;;18.86
67509;BMP280;54354;44.724;11.284;2024-03-08T12:09:35;101497.84;;;19.05
67509;BMP280;54354;44.724;11.284;2024-03-08T12:12:02;101493.66;;;19.13
67509;BMP280;54354;44.724;11.284;2024-03-08T12:14:30;101495.00;;;19.08
67509;BMP280;54354;44.724;11.284;2024-03-08T12:16:57;101490.22;;;19.03
67509;BMP280;54354;44.724;11.284;2024-03-08T12:19:23;101488.28;;;19.04
67509;BMP280;54354;44.724;11.284;2024-03-08T12:21:48;101484.59;;;19.10
67509;BMP280;54354;44.724;11.284;2024-03-08T12:24:16;101492.66;;;19.19
67509;BMP280;54354;44.724;11.284;2024-03-08T12:26:46;101480.38;;;19.27
67509;BMP280;54354;44.724;11.284;2024-03-08T12:31:54;101471.88;;;19.20
67509;BMP280;54354;44.724;11.284;2024-03-08T12:34:20;101493.66;;;19.22
67509;BMP280;54354;44.724;11.284;2024-03-08T12:36:47;101480.09;;;19.16
67509;BMP280;54354;44.724;11.284;2024-03-08T12:39:15;101482.63;;;19.02
67509;BMP280;54354;44.724;11.284;2024-03-08T12:41:41;101485.75;;;18.91
67509;BMP280;54354;44.724;11.284;2024-03-08T12:44:07;101488.09;;;18.80
67509;BMP280;54354;44.724;11.284;2024-03-08T12:46:37;101477.34;;;18.70
67509;BMP280;54354;44.724;11.284;2024-03-08T12:49:08;101464.09;;;18.58
67509;BMP280;54354;44.724;11.284;2024-03-08T12:51:34;101473.75;;;18.55
67509;BMP280;54354;44.724;11.284;2024-03-08T12:54:00;101467.75;;;18.42
67509;BMP280;54354;44.724;11.284;2024-03-08T12:56:31;101453.56;;;18.32
67509;BMP280;54354;44.724;11.284;2024-03-08T12:58:58;101465.53;;;18.40
67509;BMP280;54354;44.724;11.284;2024-03-08T13:01:24;101471.91;;;18.34
67509;BMP280;54354;44.724;11.284;2024-03-08T13:03:49;101464.84;;;18.18
67509;BMP280;54354;44.724;11.284;2024-03-08T13:06:15;101472.84;;;18.09
67509;BMP280;54354;44.724;11.284;2024-03-08T13:08:41;101472.38;;;18.01
67509;BMP280;54354;44.724;11.284;2024-03-08T13:11:10;101458.59;;;17.90
67509;BMP280;54354;44.724;11.284;2024-03-08T13:13:40;101462.59;;;17.85
67509;BMP280;54354;44.724;11.284;2024-03-08T13:16:06;101464.16;;;17.74
67509;BMP280;54354;44.724;11.284;2024-03-08T13:18:37;101452.97;;;17.66
67509;BMP280;54354;44.724;11.284;2024-03-08T13:21:03;101452.16;;;17.56
67509;BMP280;54354;44.724;11.284;2024-03-08T13:23:33;101455.94;;;17.46
67509;BMP280;54354;44.724;11.284;2024-03-08T13:25:58;101444.28;;;17.40
67509;BMP280;54354;44.724;11.284;2024-03-08T13:28:25;101448.34;;;17.45
67509;BMP280;54354;44.724;11.284;2024-03-08T13:30:55;101441.16;;;17.64
67509;BMP280;54354;44.724;11.284;2024-03-08T13:33:26;101446.72;;;17.69
67509;BMP280;54354;44.724;11.284;2024-03-08T13:35:52;101440.06;;;17.74
67509;BMP280;54354;44.724;11.284;2024-03-08T13:38:18;101430.84;;;17.75
67509;BMP280;54354;44.724;11.284;2024-03-08T13:40:45;101427.84;;;17.73
67509;BMP280;54354;44.724;11.284;2024-03-08T13:43:12;101430.19;;;17.62
67509;BMP280;54354;44.724;11.284;2024-03-08T13:45:38;101436.13;;;17.66
67509;BMP280;54354;44.724;11.284;2024-03-08T13:48:07;101425.06;;;17.76
67509;BMP280;54354;44.724;11.284;2024-03-08T13:50:38;101433.69;;;17.80
67509;BMP280;54354;44.724;11.284;2024-03-08T13:53:03;101426.00;;;17.82